עמוד ראשי
METAR-TAF:

METAR-TAF

שדות תעופה :

Metlakatla, אלסקה, ארצות הברית

קו רוחב: 55-07-52N, קו אורך: 131-34-41W, גובה: 0מטר

תצפית מזג אוויר נוכחית

הדו"ח נערך לפני 1 שעות ו 10דקות, בשעה 07:56 UTC
רוח 3קשר עם כיוונים משתנים
טמפרטורת 11 צלסיוס
לחות 87%
לחץ 1016 hPa
ראות: 16.1קילומטר

METAR: PAMM 240756Z AUTO VRB03KT 10SM 11/09 A3000 RMK AO2 SLP252 T01110094 401610106 $

זמן: 01:06 (09:06 UTC)


TAF: חסר

תצפיות ותחזיות מזג אוויר לגבי יותר מ- 4,000 שדות תעופה ברחבי העולם. דוחות METAR ו- TAF.

התחנות הזמינות מסומנות בנקודות צהובות ואדומות על גבי המפה.

העבר את העכבר לנקודה הצבעונית על מנת לראות את שם התחנה.

לאחר מכן, לחץ כדי לראות את תוכן ואת תחזיות מזג האוויר.

כדי לשנות את המפה: לחץ על הכפתורים הירוקים עם הפלוס השחור כדי להתקרב; על הכפתור הירוק עם המקף כדי להתרחק; או בחיצים הירוקים למפות סמוכות.


METAR-TAF: